createdAt,value
2024-01-12T00:02:24.503Z,10.68
2024-01-12T00:04:52.302Z,13.35
2024-01-12T00:07:18.932Z,14.43
2024-01-12T00:09:45.406Z,13.45
2024-01-12T00:12:11.924Z,14.20
2024-01-12T00:14:38.424Z,10.35
2024-01-12T00:17:04.904Z,16.92
2024-01-12T00:19:31.306Z,11.48
2024-01-12T00:21:57.813Z,11.02
2024-01-12T00:24:24.767Z,10.97
2024-01-12T00:26:51.424Z,15.40
2024-01-12T00:29:18.066Z,12.15
2024-01-12T00:31:44.920Z,13.05
2024-01-12T00:34:11.484Z,9.73
2024-01-12T00:36:38.007Z,11.33
2024-01-12T00:39:05.219Z,14.10
2024-01-12T00:41:31.855Z,12.13
2024-01-12T00:43:58.902Z,9.73
2024-01-12T00:46:25.352Z,13.95
2024-01-12T00:48:51.987Z,6.70
2024-01-12T00:51:18.972Z,11.13
2024-01-12T00:53:45.647Z,10.30
2024-01-12T00:56:12.266Z,15.00
2024-01-12T00:58:38.738Z,10.45
2024-01-12T01:01:05.356Z,10.43
2024-01-12T01:03:32.231Z,11.35
2024-01-12T01:05:58.841Z,9.57
2024-01-12T01:08:25.561Z,12.38
2024-01-12T01:10:52.084Z,8.57
2024-01-12T01:13:18.621Z,5.73
2024-01-12T01:15:45.088Z,6.85
2024-01-12T01:18:12.338Z,12.18
2024-01-12T01:20:39.396Z,7.60
2024-01-12T01:23:06.210Z,7.50
2024-01-12T01:25:32.692Z,9.70
2024-01-12T01:27:59.201Z,9.00
2024-01-12T01:30:25.689Z,6.00
2024-01-12T01:32:52.445Z,9.65
2024-01-12T01:35:19.162Z,10.80
2024-01-12T01:37:45.687Z,10.03
2024-01-12T01:40:12.446Z,7.43
2024-01-12T01:42:40.223Z,7.22
2024-01-12T01:45:07.104Z,8.27
2024-01-12T01:47:34.041Z,11.45
2024-01-12T01:50:01.421Z,9.40
2024-01-12T01:52:28.918Z,8.88
2024-01-12T01:54:57.915Z,9.10
2024-01-12T01:57:26.842Z,11.15
2024-01-12T01:59:53.698Z,7.15
2024-01-12T02:02:20.386Z,9.23
2024-01-12T02:04:46.908Z,8.15
2024-01-12T02:07:13.421Z,10.80
2024-01-12T02:09:40.758Z,9.93
2024-01-12T02:12:07.980Z,8.38
2024-01-12T02:14:34.615Z,4.40
2024-01-12T02:17:01.279Z,10.98
2024-01-12T02:19:27.755Z,8.52
2024-01-12T02:21:54.311Z,8.27
2024-01-12T02:24:20.776Z,7.35
2024-01-12T02:26:47.338Z,13.37
2024-01-12T02:29:13.984Z,7.95
2024-01-12T02:31:40.810Z,11.00
2024-01-12T02:34:07.719Z,9.05
2024-01-12T02:36:34.230Z,6.72
2024-01-12T02:39:00.697Z,7.47
2024-01-12T02:41:27.285Z,4.60
2024-01-12T02:43:53.773Z,5.30
2024-01-12T02:46:20.352Z,7.55
2024-01-12T02:48:46.900Z,7.45
2024-01-12T02:51:13.388Z,3.67
2024-01-12T02:53:40.009Z,6.15
2024-01-12T02:56:06.634Z,6.15
2024-01-12T02:58:33.413Z,4.95
2024-01-12T03:01:00.683Z,4.30
2024-01-12T03:03:27.542Z,7.17
2024-01-12T03:05:54.194Z,6.32
2024-01-12T03:08:20.916Z,7.30
2024-01-12T03:10:47.400Z,9.00
2024-01-12T03:13:13.886Z,7.57
2024-01-12T03:15:40.358Z,7.60
2024-01-12T03:18:09.495Z,7.45
2024-01-12T03:20:36.499Z,6.57
2024-01-12T03:23:03.192Z,7.97
2024-01-12T03:25:30.002Z,5.90
2024-01-12T03:27:56.421Z,3.33
2024-01-12T03:30:22.971Z,6.80
2024-01-12T03:32:49.675Z,8.15
2024-01-12T03:35:16.615Z,8.80
2024-01-12T03:37:43.248Z,5.90
2024-01-12T03:40:10.333Z,4.27
2024-01-12T03:42:36.744Z,12.65
2024-01-12T03:45:03.423Z,3.15
2024-01-12T03:47:30.191Z,9.20
2024-01-12T03:49:56.729Z,9.02
2024-01-12T03:52:23.213Z,7.30
2024-01-12T03:54:49.681Z,8.68
2024-01-12T03:57:16.705Z,6.05
2024-01-12T03:59:43.396Z,6.10
2024-01-12T04:02:09.923Z,5.85
2024-01-12T04:04:36.369Z,6.30
2024-01-12T04:07:02.863Z,3.40
2024-01-12T04:09:29.410Z,8.93
2024-01-12T04:11:55.936Z,3.25
2024-01-12T04:14:22.476Z,2.72
2024-01-12T04:16:48.974Z,7.27
2024-01-12T04:19:15.556Z,6.30
2024-01-12T04:21:42.039Z,5.03
2024-01-12T04:24:08.684Z,7.13
2024-01-12T04:26:36.371Z,3.08
2024-01-12T04:29:02.886Z,4.10
2024-01-12T04:31:29.386Z,6.35
2024-01-12T04:33:56.103Z,5.32
2024-01-12T04:36:24.009Z,8.68
2024-01-12T04:38:50.677Z,6.82
2024-01-12T04:41:17.286Z,5.77
2024-01-12T04:43:43.743Z,7.22
2024-01-12T04:46:10.443Z,3.78
2024-01-12T04:48:37.127Z,4.50
2024-01-12T04:51:04.019Z,6.50
2024-01-12T04:53:30.565Z,5.43
2024-01-12T04:55:57.144Z,4.43
2024-01-12T04:58:23.667Z,5.35
2024-01-12T05:00:50.351Z,4.97
2024-01-12T05:03:17.388Z,5.47
2024-01-12T05:05:44.169Z,7.47
2024-01-12T05:08:10.804Z,7.13
2024-01-12T05:10:37.275Z,5.53
2024-01-12T05:13:03.940Z,3.50
2024-01-12T05:15:30.455Z,4.88
2024-01-12T05:17:57.082Z,5.30
2024-01-12T05:20:23.743Z,6.30
2024-01-12T05:22:50.201Z,6.40
2024-01-12T05:25:16.775Z,4.78
2024-01-12T05:27:43.237Z,2.65
2024-01-12T05:30:10.466Z,5.50
2024-01-12T05:32:37.295Z,2.97
2024-01-12T05:35:04.027Z,3.13
2024-01-12T05:37:30.597Z,4.68
2024-01-12T05:39:57.077Z,5.43
2024-01-12T05:42:23.530Z,4.70
2024-01-12T05:44:50.101Z,3.85
2024-01-12T05:47:16.651Z,6.43
2024-01-12T05:49:43.181Z,9.60
2024-01-12T05:52:09.603Z,5.70
2024-01-12T05:54:36.056Z,7.40
2024-01-12T05:57:02.741Z,3.58
2024-01-12T05:59:29.293Z,3.75
2024-01-12T06:01:55.960Z,5.10
2024-01-12T06:04:22.456Z,3.85
2024-01-12T06:06:49.850Z,6.10
2024-01-12T06:09:16.503Z,4.22
2024-01-12T06:11:44.217Z,7.53
2024-01-12T06:14:11.628Z,4.07
2024-01-12T06:16:38.711Z,5.50
2024-01-12T06:19:05.438Z,5.13
2024-01-12T06:21:32.009Z,8.05
2024-01-12T06:23:58.640Z,9.52
2024-01-12T06:26:25.207Z,6.38
2024-01-12T06:28:51.704Z,4.35
2024-01-12T06:31:18.256Z,11.03
2024-01-12T06:33:44.820Z,4.90
2024-01-12T06:36:11.401Z,5.57
2024-01-12T06:38:38.680Z,5.75
2024-01-12T06:41:05.308Z,6.90
2024-01-12T06:43:31.821Z,9.53
2024-01-12T06:45:58.432Z,7.85
2024-01-12T06:48:25.083Z,8.93
2024-01-12T06:50:51.766Z,5.35
2024-01-12T06:53:18.569Z,6.47
2024-01-12T06:55:45.066Z,10.57
2024-01-12T06:58:11.535Z,9.30
2024-01-12T07:00:38.025Z,9.10
2024-01-12T07:03:04.944Z,4.85
2024-01-12T07:05:32.162Z,8.90
2024-01-12T07:07:59.031Z,5.07
2024-01-12T07:10:25.530Z,10.05
2024-01-12T07:12:53.221Z,4.53
2024-01-12T07:15:23.893Z,6.07
2024-01-12T07:17:50.604Z,6.15
2024-01-12T07:20:18.611Z,9.27
2024-01-12T07:22:46.685Z,4.82
2024-01-12T07:25:13.319Z,6.55
2024-01-12T07:27:40.562Z,5.20
2024-01-12T07:30:08.473Z,3.75
2024-01-12T07:32:36.394Z,6.47
2024-01-12T07:35:03.265Z,4.97
2024-01-12T07:37:29.861Z,5.88
2024-01-12T07:39:56.354Z,3.58
2024-01-12T07:42:22.923Z,6.22
2024-01-12T07:44:50.522Z,4.83
2024-01-12T07:47:17.371Z,5.60
2024-01-12T07:49:44.386Z,6.07
2024-01-12T07:52:14.954Z,6.35
2024-01-12T07:54:44.101Z,5.35
2024-01-12T07:57:10.620Z,7.17
2024-01-12T07:59:37.607Z,6.13
2024-01-12T08:02:04.361Z,7.50
2024-01-12T08:04:30.931Z,3.05
2024-01-12T08:06:57.758Z,6.13
2024-01-12T08:09:24.442Z,5.60
2024-01-12T08:11:51.002Z,3.72
2024-01-12T08:14:17.646Z,5.60
2024-01-12T08:16:44.197Z,3.92
2024-01-12T08:19:10.732Z,4.32
2024-01-12T08:21:45.474Z,6.53
2024-01-12T08:24:18.501Z,3.42
2024-01-12T08:26:46.714Z,9.48
2024-01-12T08:29:13.451Z,6.10
2024-01-12T08:31:39.911Z,7.15
2024-01-12T08:34:06.566Z,6.17
2024-01-12T08:36:33.180Z,3.08
2024-01-12T08:38:59.737Z,6.20
2024-01-12T08:41:26.480Z,5.25
2024-01-12T08:43:54.325Z,6.15
2024-01-12T08:46:21.393Z,7.70
2024-01-12T08:48:50.197Z,4.82
2024-01-12T08:51:17.573Z,3.92
2024-01-12T08:53:44.229Z,5.25
2024-01-12T08:56:10.773Z,5.78
2024-01-12T08:58:39.329Z,7.73
2024-01-12T09:01:06.263Z,7.53
2024-01-12T09:03:33.081Z,6.47
2024-01-12T09:05:59.900Z,5.20
2024-01-12T09:08:26.364Z,6.95
2024-01-12T09:10:53.038Z,6.63
2024-01-12T09:13:19.540Z,5.85
2024-01-12T09:15:46.043Z,7.85
2024-01-12T09:18:12.762Z,6.65
2024-01-12T09:20:39.403Z,7.75
2024-01-12T09:23:06.682Z,9.70
2024-01-12T09:25:36.046Z,4.85
2024-01-12T09:28:02.539Z,9.07
2024-01-12T09:30:29.147Z,9.13
2024-01-12T09:32:55.901Z,5.75
2024-01-12T09:35:22.701Z,5.80
2024-01-12T09:37:49.291Z,6.25
2024-01-12T09:40:15.879Z,5.38
2024-01-12T09:42:49.295Z,8.75
2024-01-12T09:45:22.334Z,10.00
2024-01-12T09:47:51.193Z,5.60
2024-01-12T09:50:22.739Z,8.40
2024-01-12T09:52:50.199Z,10.32
2024-01-12T09:55:16.663Z,12.30
2024-01-12T09:57:45.746Z,15.05
2024-01-12T10:00:15.770Z,6.40
2024-01-12T10:02:42.461Z,5.10
2024-01-12T10:05:09.496Z,5.32
2024-01-12T10:07:36.096Z,5.35
2024-01-12T10:10:02.755Z,6.40
2024-01-12T10:12:29.230Z,10.23
2024-01-12T10:15:03.990Z,11.82
2024-01-12T10:17:34.960Z,8.57
2024-01-12T10:20:02.503Z,3.90
2024-01-12T10:22:29.095Z,4.40
2024-01-12T10:25:03.865Z,5.10
2024-01-12T10:27:31.213Z,8.13
2024-01-12T10:29:57.937Z,12.95
2024-01-12T10:32:25.367Z,10.13
2024-01-12T10:34:54.234Z,5.82
2024-01-12T10:37:21.720Z,9.57
2024-01-12T10:39:50.778Z,3.30
2024-01-12T10:42:18.388Z,4.82
2024-01-12T10:44:46.221Z,12.68
2024-01-12T10:47:18.434Z,7.75
2024-01-12T10:49:52.445Z,12.83
2024-01-12T10:53:00.984Z,7.18
2024-01-12T10:55:34.867Z,10.27
2024-01-12T10:58:03.180Z,10.23
2024-01-12T11:00:32.988Z,7.43
2024-01-12T11:03:01.502Z,4.97
2024-01-12T11:05:29.611Z,7.38
2024-01-12T11:08:00.409Z,5.07
2024-01-12T11:10:31.254Z,4.93
2024-01-12T11:13:01.082Z,6.15
2024-01-12T11:15:29.688Z,5.73
2024-01-12T11:17:56.405Z,6.72
2024-01-12T11:20:23.136Z,5.90
2024-01-12T11:22:50.734Z,8.10
2024-01-12T11:25:20.578Z,12.13
2024-01-12T11:27:52.047Z,5.50
2024-01-12T11:30:23.454Z,5.53
2024-01-12T11:33:01.268Z,7.15
2024-01-12T11:35:30.614Z,5.43
2024-01-12T11:38:07.113Z,5.53
2024-01-12T11:40:36.914Z,4.27
2024-01-12T11:43:05.169Z,5.78
2024-01-12T11:45:33.652Z,7.32
2024-01-12T11:48:03.571Z,6.38
2024-01-12T11:50:30.259Z,7.60
2024-01-12T11:52:58.194Z,7.13
2024-01-12T11:55:25.429Z,6.30
2024-01-12T11:57:54.285Z,5.95
2024-01-12T12:00:22.097Z,8.93
2024-01-12T12:02:53.799Z,6.10
2024-01-12T12:05:23.666Z,7.20
2024-01-12T12:07:50.294Z,2.33
2024-01-12T12:10:19.654Z,5.72
2024-01-12T12:12:48.085Z,9.73
2024-01-12T12:15:15.866Z,5.93
2024-01-12T12:17:47.377Z,5.30
2024-01-12T12:20:14.857Z,4.70
2024-01-12T12:22:43.592Z,3.78
2024-01-12T12:25:14.034Z,1.88
2024-01-12T12:27:41.759Z,7.10
2024-01-12T12:30:11.929Z,4.17
2024-01-12T12:32:46.739Z,6.93
2024-01-12T12:35:21.637Z,5.18
2024-01-12T12:37:49.072Z,2.42
2024-01-12T12:40:16.697Z,1.65
2024-01-12T12:42:45.260Z,3.80
2024-01-12T12:45:12.794Z,3.35
2024-01-12T12:47:40.851Z,3.97
2024-01-12T12:50:12.910Z,2.25
2024-01-12T12:52:41.278Z,7.20
2024-01-12T12:55:08.801Z,4.10
2024-01-12T12:57:36.391Z,0.90
2024-01-12T13:00:06.352Z,4.07
2024-01-12T13:02:33.126Z,2.08
2024-01-12T13:04:59.731Z,6.28
2024-01-12T13:07:26.208Z,1.20
2024-01-12T13:09:56.905Z,2.10
2024-01-12T13:12:24.629Z,5.88
2024-01-12T13:14:52.714Z,4.97
2024-01-12T13:17:21.502Z,3.15
2024-01-12T13:19:48.406Z,4.00
2024-01-12T13:22:15.053Z,5.80
2024-01-12T13:24:41.575Z,1.67
2024-01-12T13:27:08.528Z,3.40
2024-01-12T13:29:35.091Z,7.13
2024-01-12T13:32:03.968Z,8.03
2024-01-12T13:34:30.872Z,4.63
2024-01-12T13:37:01.691Z,3.05
2024-01-12T13:39:28.525Z,4.43
2024-01-12T13:41:55.161Z,2.97
2024-01-12T13:44:21.882Z,3.77
2024-01-12T13:46:48.407Z,2.78
2024-01-12T13:49:15.145Z,7.28
2024-01-12T13:51:42.844Z,2.58
2024-01-12T13:54:09.835Z,2.67
2024-01-12T13:56:36.415Z,3.43
2024-01-12T13:59:04.306Z,4.57
2024-01-12T14:01:34.137Z,3.92
2024-01-12T14:04:01.786Z,3.28
2024-01-12T14:06:28.480Z,5.82
2024-01-12T14:08:55.353Z,3.50
2024-01-12T14:11:21.858Z,2.45
2024-01-12T14:13:48.967Z,2.92
2024-01-12T14:16:16.072Z,5.30
2024-01-12T14:18:42.699Z,1.42
2024-01-12T14:21:10.373Z,3.43
2024-01-12T14:23:36.992Z,4.57
2024-01-12T14:26:04.145Z,3.92
2024-01-12T14:28:33.356Z,2.80
2024-01-12T14:31:02.599Z,2.22
2024-01-12T14:33:33.707Z,4.60
2024-01-12T14:36:04.772Z,5.85
2024-01-12T14:38:31.716Z,3.42
2024-01-12T14:40:58.177Z,0.85
2024-01-12T14:43:24.564Z,1.73
2024-01-12T14:45:51.228Z,2.20
2024-01-12T14:48:18.219Z,1.95
2024-01-12T14:50:46.936Z,3.58
2024-01-12T14:53:13.723Z,1.27
2024-01-12T14:55:40.938Z,3.90
2024-01-12T14:58:07.502Z,2.80
2024-01-12T15:00:34.124Z,6.70
2024-01-12T15:03:00.970Z,3.97
2024-01-12T15:05:27.751Z,2.30
2024-01-12T15:07:54.423Z,2.63
2024-01-12T15:10:21.582Z,2.03
2024-01-12T15:12:48.173Z,1.30
2024-01-12T15:15:14.936Z,2.53
2024-01-12T15:17:42.023Z,5.45
2024-01-12T15:20:09.672Z,1.70
2024-01-12T15:22:36.383Z,0.87
2024-01-12T15:25:02.961Z,1.83
2024-01-12T15:27:29.451Z,2.88
2024-01-12T15:29:56.044Z,2.60
2024-01-12T15:32:22.775Z,1.63
2024-01-12T15:34:49.866Z,2.43
2024-01-12T15:37:17.372Z,4.25
2024-01-12T15:39:44.894Z,4.75
2024-01-12T15:42:11.493Z,3.30
2024-01-12T15:44:38.018Z,2.97
2024-01-12T15:47:04.750Z,3.23
2024-01-12T15:49:31.830Z,9.32
2024-01-12T15:51:59.083Z,2.92
2024-01-12T15:54:25.483Z,4.35
2024-01-12T15:56:52.086Z,2.70
2024-01-12T15:59:18.528Z,1.93
2024-01-12T16:01:45.064Z,1.60
2024-01-12T16:04:11.666Z,2.78
2024-01-12T16:06:38.326Z,2.33
2024-01-12T16:09:04.986Z,1.35
2024-01-12T16:11:32.687Z,1.67
2024-01-12T16:13:59.538Z,2.38
2024-01-12T16:16:26.074Z,3.08
2024-01-12T16:19:00.136Z,3.17
2024-01-12T16:21:36.270Z,3.40
2024-01-12T16:24:03.925Z,4.63
2024-01-12T16:26:36.276Z,5.20
2024-01-12T16:29:02.738Z,3.55
2024-01-12T16:31:29.156Z,3.20
2024-01-12T16:33:55.720Z,2.90
2024-01-12T16:36:22.215Z,3.27
2024-01-12T16:38:48.650Z,1.90
2024-01-12T16:41:17.930Z,3.60
2024-01-12T16:43:44.413Z,3.75
2024-01-12T16:46:10.929Z,4.88
2024-01-12T16:48:37.516Z,4.37
2024-01-12T16:51:04.249Z,4.38
2024-01-12T16:53:30.987Z,2.88
2024-01-12T16:55:57.508Z,4.43
2024-01-12T16:58:23.959Z,5.40
2024-01-12T17:00:50.632Z,5.60
2024-01-12T17:03:17.242Z,6.13
2024-01-12T17:05:44.031Z,4.03
2024-01-12T17:08:10.604Z,3.28
2024-01-12T17:10:37.377Z,4.22
2024-01-12T17:13:04.018Z,6.93
2024-01-12T17:15:30.427Z,7.07
2024-01-12T17:17:57.044Z,7.53
2024-01-12T17:20:23.621Z,8.77
2024-01-12T17:22:50.067Z,7.63
2024-01-12T17:25:16.502Z,6.83
2024-01-12T17:27:42.976Z,8.25
2024-01-12T17:30:10.299Z,6.18
2024-01-12T17:32:36.988Z,3.85
2024-01-12T17:35:03.844Z,6.20
2024-01-12T17:37:30.622Z,8.03
2024-01-12T17:39:57.156Z,8.50
2024-01-12T17:42:23.922Z,6.20
2024-01-12T17:44:50.428Z,7.38
2024-01-12T17:47:19.201Z,5.28
2024-01-12T17:49:45.802Z,4.80
2024-01-12T17:52:12.396Z,7.85
2024-01-12T17:54:38.863Z,7.20
2024-01-12T17:57:05.607Z,5.00
2024-01-12T17:59:33.165Z,3.70
2024-01-12T18:01:59.675Z,3.63
2024-01-12T18:04:26.159Z,6.60
2024-01-12T18:06:52.762Z,6.32
2024-01-12T18:09:19.318Z,5.80
2024-01-12T18:11:45.929Z,4.35
2024-01-12T18:14:12.474Z,7.23
2024-01-12T18:16:40.922Z,5.85
2024-01-12T18:19:09.257Z,8.45
2024-01-12T18:21:35.784Z,4.80
2024-01-12T18:24:02.302Z,5.07
2024-01-12T18:26:28.834Z,4.03
2024-01-12T18:28:55.375Z,5.22
2024-01-12T18:31:23.125Z,5.97
2024-01-12T18:33:49.984Z,7.55
2024-01-12T18:36:16.668Z,5.95
2024-01-12T18:38:43.521Z,3.37
2024-01-12T18:41:10.058Z,5.47
2024-01-12T18:43:36.601Z,4.95
2024-01-12T18:46:03.126Z,4.22
2024-01-12T18:48:30.631Z,9.20
2024-01-12T18:50:57.238Z,2.57
2024-01-12T18:53:24.094Z,5.15
2024-01-12T18:55:50.605Z,3.63
2024-01-12T18:58:17.073Z,4.03
2024-01-12T19:00:43.612Z,9.15
2024-01-12T19:03:10.231Z,4.43
2024-01-12T19:05:36.847Z,6.20
2024-01-12T19:08:04.223Z,6.05
2024-01-12T19:10:30.716Z,4.00
2024-01-12T19:12:57.507Z,4.47
2024-01-12T19:15:24.029Z,3.50
2024-01-12T19:17:50.819Z,5.88
2024-01-12T19:20:17.575Z,12.63
2024-01-12T19:22:44.132Z,6.13
2024-01-12T19:25:10.729Z,8.38
2024-01-12T19:27:37.206Z,6.77
2024-01-12T19:30:06.587Z,4.00
2024-01-12T19:32:33.856Z,4.50
2024-01-12T19:35:01.264Z,7.05
2024-01-12T19:37:30.547Z,7.18
2024-01-12T19:39:59.578Z,14.17
2024-01-12T19:42:26.131Z,7.10
2024-01-12T19:44:52.701Z,8.32
2024-01-12T19:47:19.222Z,8.38
2024-01-12T19:49:45.635Z,6.60
2024-01-12T19:52:12.156Z,8.63
2024-01-12T19:54:38.600Z,7.30
2024-01-12T19:57:05.802Z,8.82
2024-01-12T19:59:32.324Z,10.13
2024-01-12T20:01:58.867Z,13.15
2024-01-12T20:04:37.161Z,10.93
2024-01-12T20:07:08.016Z,10.35
2024-01-12T20:09:34.647Z,11.18
2024-01-12T20:12:01.256Z,14.93
2024-01-12T20:14:27.880Z,11.10
2024-01-12T20:16:54.852Z,8.40
2024-01-12T20:19:21.602Z,8.77
2024-01-12T20:21:48.295Z,7.15
2024-01-12T20:24:14.856Z,7.50
2024-01-12T20:26:41.362Z,7.28
2024-01-12T20:29:07.802Z,7.53
2024-01-12T20:31:34.244Z,10.70
2024-01-12T20:34:00.827Z,6.63
2024-01-12T20:36:30.262Z,7.88
2024-01-12T20:38:56.760Z,11.30
2024-01-12T20:41:23.373Z,11.60
2024-01-12T20:43:49.861Z,12.23
2024-01-12T20:46:16.365Z,10.02
2024-01-12T20:48:42.885Z,15.85
2024-01-12T20:51:09.746Z,8.63
2024-01-12T20:53:36.325Z,11.67
2024-01-12T20:56:03.034Z,9.45
2024-01-12T20:58:29.473Z,7.70
2024-01-12T21:00:58.294Z,5.57
2024-01-12T21:03:25.056Z,6.95
2024-01-12T21:05:51.774Z,6.37
2024-01-12T21:08:18.382Z,7.40
2024-01-12T21:10:44.914Z,12.25
2024-01-12T21:13:11.367Z,7.75
2024-01-12T21:15:37.793Z,7.63
2024-01-12T21:18:04.534Z,6.97
2024-01-12T21:20:31.191Z,11.88
2024-01-12T21:22:58.696Z,11.80
2024-01-12T21:25:26.071Z,8.68
2024-01-12T21:27:52.527Z,7.05
2024-01-12T21:30:19.414Z,6.67
2024-01-12T21:32:46.372Z,6.75
2024-01-12T21:35:13.193Z,7.25
2024-01-12T21:37:39.702Z,8.07
2024-01-12T21:40:07.153Z,8.95
2024-01-12T21:42:33.731Z,9.37
2024-01-12T21:45:00.509Z,8.52
2024-01-12T21:47:27.249Z,7.25
2024-01-12T21:49:53.992Z,5.20
2024-01-12T21:52:20.539Z,8.13
2024-01-12T21:54:47.075Z,8.07
2024-01-12T21:57:13.567Z,9.55
2024-01-12T21:59:40.253Z,6.18
2024-01-12T22:02:07.063Z,8.55
2024-01-12T22:04:33.590Z,7.63
2024-01-12T22:07:01.242Z,7.53
2024-01-12T22:09:28.580Z,6.05
2024-01-12T22:11:55.230Z,7.97
2024-01-12T22:14:21.748Z,8.25
2024-01-12T22:16:48.406Z,10.18
2024-01-12T22:19:15.070Z,6.33
2024-01-12T22:21:41.689Z,12.85
2024-01-12T22:24:08.173Z,9.40
2024-01-12T22:26:34.776Z,6.88
2024-01-12T22:29:01.273Z,9.25
2024-01-12T22:31:27.714Z,7.90
2024-01-12T22:33:54.487Z,7.00
2024-01-12T22:36:21.144Z,8.95
2024-01-12T22:38:47.746Z,10.20
2024-01-12T22:41:14.238Z,9.25
2024-01-12T22:43:40.672Z,8.30
2024-01-12T22:46:07.388Z,8.13
2024-01-12T22:48:34.021Z,9.27
2024-01-12T22:51:00.674Z,11.02
2024-01-12T22:53:27.857Z,13.77
2024-01-12T22:55:54.588Z,10.60
2024-01-12T22:58:21.112Z,11.02
2024-01-12T23:00:48.661Z,11.55
2024-01-12T23:03:15.783Z,13.95
2024-01-12T23:05:43.884Z,14.73
2024-01-12T23:08:10.524Z,13.80
2024-01-12T23:10:37.105Z,11.23
2024-01-12T23:13:03.647Z,13.45
2024-01-12T23:15:30.078Z,11.73
2024-01-12T23:17:56.702Z,12.38
2024-01-12T23:20:23.346Z,12.87
2024-01-12T23:22:49.846Z,13.15
2024-01-12T23:25:16.406Z,13.00
2024-01-12T23:27:44.460Z,11.02
2024-01-12T23:30:11.429Z,13.02
2024-01-12T23:32:38.416Z,12.20
2024-01-12T23:35:06.450Z,13.77
2024-01-12T23:37:33.080Z,11.63
2024-01-12T23:39:59.597Z,14.48
2024-01-12T23:42:26.194Z,12.40
2024-01-12T23:44:52.677Z,16.40
2024-01-12T23:47:19.218Z,13.48
2024-01-12T23:49:46.046Z,14.07
2024-01-12T23:52:12.753Z,14.57
2024-01-12T23:54:39.194Z,15.23
2024-01-12T23:57:05.979Z,14.30
2024-01-12T23:59:32.884Z,10.52
